Veracruz Airport, Mexico

12:37 PM CDT on September 04, 2015 (GMT -0500)
Gen Heriberto Jara International | | Change Station
CLOSE
Current Station
Airport
Location: Veracruz Airport,
Elevation: 95 ft
Nearby Weather Stations

Elev 95 ft 19.15 °N, 96.19 °W | Updated 53 minutes ago

Scattered Clouds
Scattered Clouds
88 °F
Feels Like 100 °F
N
4
Wind Variable Wind from ESE

Today
High -- | Low -- °F
--% Chance of Precip.
Yesterday
High -- | Low -- °F
Precip. -- in
7:10 AM 7:37 PM
Waning Gibbous, 57% visible
Pressure 29.90 in
Visibility 5.0 miles
Clouds Few 1500 ft
Scattered Clouds 7000 ft
Scattered Clouds 22000 ft
Heat Index 100 °F
Dew Point 77 °F
Humidity 70%
Rainfall 0.00 in
Snow Depth Not available.
UV 8 out of 12
Pollen Not available.
Air Quality Not available.
Flu Activity Not available.
METAR MMVR 041644Z 11003KT 5SM FEW015 SCT070 SCT220 31/25 A2990 RMK 8/138 HZY
Pressure 29.90 in
Visibility 5.0 miles
Clouds Few 1500 ft
Scattered Clouds 7000 ft
Scattered Clouds 22000 ft
Heat Index 100 °F
Dew Point 77 °F
Humidity 70%
Rainfall 0.00 in
Snow Depth Not available.
UV 8 out of 12
Pollen Not available.
Air Quality Not available.
Flu Activity Not available.
METAR MMVR 041644Z 11003KT 5SM FEW015 SCT070 SCT220 31/25 A2990 RMK 8/138 HZY

10-Day Weather Forecast

×

Almanac

Astronomy

Sep. 04, 2015 Rise Set
Actual Time
Civil Twilight
Nautical Twilight
Astronomical Twilight
Moon
Length of Visible Light
Length of Day
Tomorrow will be .
, % of the Moon is Illuminated

Today's Extremes

Country Highs Country Lows

Community

WunderPhotos

Upload Photos

1,852,244 photos uploaded!

WunderBlogs® & News

Nearby

Air Quality

  Air Quality AQ Index Pollutant
Not available.

Snow Depth

Station Depth Elevation

Earthquake Activity

City Distance Mag. Time & Date
Minimum magnitude displayed is 2.5.

Coastal Water Temperatures

Place Temperature

Stations

Nearby Weather Stations

Station Location Temp. Windchill Dew Point Humidity Wind Precip. Elev Updated Type